Terminal Aerodrome Forecast
Issued by NWS

Home | Current Version | Previous Version | Text Only | Print | Product List | Glossary On
Versions: 1 2 3 4 5 6 7 8 9 10 11 12 13 14 15 16 17 18 19 20 21 22 23
000
FTUS43 KGRB 262300
TAFAUW
TAF
KAUW 262330Z 2700/2724 29005KT 5SM -SN SCT015 OVC040
      TEMPO 2700/2704 1 1/2SM -SHSN BKN015 BKN025
     FM270400 32008KT 5SM -SN BKN014 BKN025
     FM271000 32011G17KT P6SM SCT025 BKN050
     FM271500 32012G20KT P6SM SCT030 SCT050
     FM271800 32006KT P6SM SKC=

USA.gov is the U.S. government's official web portal to all federal, state and local government web resources and services.